createdAt,value
2017-12-06T00:00:12.350Z,13.45
2017-12-06T00:02:42.001Z,9.55
2017-12-06T00:05:11.780Z,10.70
2017-12-06T00:07:41.530Z,13.70
2017-12-06T00:10:11.132Z,13.38
2017-12-06T00:12:46.161Z,9.98
2017-12-06T00:15:21.324Z,14.95
2017-12-06T00:17:51.105Z,10.82
2017-12-06T00:20:24.886Z,12.48
2017-12-06T00:22:54.630Z,15.23
2017-12-06T00:25:24.591Z,15.07
2017-12-06T00:27:54.157Z,16.10
2017-12-06T00:30:24.013Z,16.55
2017-12-06T00:32:53.783Z,15.20
2017-12-06T00:35:23.517Z,17.00
2017-12-06T00:37:53.253Z,13.27
2017-12-06T00:40:23.126Z,12.60
2017-12-06T00:42:52.889Z,14.55
2017-12-06T00:45:22.625Z,14.10
2017-12-06T00:47:52.437Z,15.35
2017-12-06T00:50:22.202Z,15.18
2017-12-06T00:52:51.984Z,14.13
2017-12-06T00:55:21.732Z,16.70
2017-12-06T00:57:51.481Z,12.35
2017-12-06T01:00:21.208Z,11.77
2017-12-06T01:02:50.833Z,13.48
2017-12-06T01:05:20.620Z,13.93
2017-12-06T01:07:50.417Z,13.32
2017-12-06T01:10:20.120Z,8.95
2017-12-06T01:12:49.849Z,12.05
2017-12-06T01:15:19.661Z,12.37
2017-12-06T01:17:49.524Z,13.45
2017-12-06T01:20:19.575Z,14.57
2017-12-06T01:22:53.430Z,10.98
2017-12-06T01:25:23.579Z,12.68
2017-12-06T01:27:53.351Z,12.55
2017-12-06T01:30:23.333Z,13.43
2017-12-06T01:32:53.063Z,13.98
2017-12-06T01:35:22.917Z,13.70
2017-12-06T01:37:52.815Z,13.77
2017-12-06T01:40:22.847Z,15.20
2017-12-06T01:42:54.060Z,14.13
2017-12-06T01:45:27.111Z,13.52
2017-12-06T01:47:56.945Z,15.88
2017-12-06T01:50:26.739Z,14.57
2017-12-06T01:52:56.531Z,15.82
2017-12-06T01:55:26.601Z,13.50
2017-12-06T01:57:56.269Z,17.35
2017-12-06T02:00:26.161Z,14.43
2017-12-06T02:02:55.944Z,13.98
2017-12-06T02:05:25.954Z,11.77
2017-12-06T02:07:55.793Z,13.90
2017-12-06T02:10:25.713Z,13.93
2017-12-06T02:12:55.471Z,15.18
2017-12-06T02:15:25.229Z,14.10
2017-12-06T02:17:55.080Z,15.60
2017-12-06T02:20:24.564Z,14.77
2017-12-06T02:22:54.001Z,12.77
2017-12-06T02:25:23.592Z,16.08
2017-12-06T02:27:53.116Z,14.50
2017-12-06T02:30:22.619Z,12.98
2017-12-06T02:32:52.424Z,14.27
2017-12-06T02:35:22.134Z,15.25
2017-12-06T02:37:51.867Z,15.38
2017-12-06T02:40:32.699Z,16.77
2017-12-06T02:43:13.377Z,13.25
2017-12-06T02:45:42.961Z,15.68
2017-12-06T02:48:12.880Z,14.40
2017-12-06T02:50:42.585Z,13.05
2017-12-06T02:53:12.308Z,13.15
2017-12-06T02:55:42.057Z,20.02
2017-12-06T02:58:11.579Z,13.90
2017-12-06T03:00:41.337Z,16.55
2017-12-06T03:03:11.809Z,13.07
2017-12-06T03:05:41.379Z,10.77
2017-12-06T03:08:11.161Z,13.82
2017-12-06T03:10:40.987Z,15.35
2017-12-06T03:13:10.705Z,15.90
2017-12-06T03:15:40.422Z,15.95
2017-12-06T03:18:10.146Z,13.50
2017-12-06T03:20:39.858Z,15.38
2017-12-06T03:23:09.744Z,15.15
2017-12-06T03:25:39.815Z,16.33
2017-12-06T03:28:09.579Z,14.60
2017-12-06T03:30:39.321Z,16.02
2017-12-06T03:33:09.584Z,16.05
2017-12-06T03:35:39.913Z,8.85
2017-12-06T03:38:09.693Z,12.40
2017-12-06T03:40:39.413Z,16.12
2017-12-06T03:43:09.168Z,15.70
2017-12-06T03:45:38.742Z,13.25
2017-12-06T03:48:08.477Z,15.93
2017-12-06T03:50:38.201Z,14.23
2017-12-06T03:53:07.977Z,12.48
2017-12-06T03:55:37.700Z,14.05
2017-12-06T03:58:07.362Z,12.52
2017-12-06T04:00:37.106Z,13.75
2017-12-06T04:03:06.811Z,14.70
2017-12-06T04:05:36.544Z,12.07
2017-12-06T04:08:06.253Z,13.27
2017-12-06T04:10:36.017Z,11.88
2017-12-06T04:13:05.822Z,19.12
2017-12-06T04:15:35.863Z,16.20
2017-12-06T04:18:05.572Z,13.55
2017-12-06T04:20:35.294Z,14.10
2017-12-06T04:23:05.068Z,14.93
2017-12-06T04:25:34.782Z,14.35
2017-12-06T04:28:04.501Z,13.65
2017-12-06T04:30:34.229Z,13.65
2017-12-06T04:33:03.964Z,15.95
2017-12-06T04:35:33.681Z,12.25
2017-12-06T04:38:03.400Z,11.68
2017-12-06T04:40:34.199Z,11.95
2017-12-06T04:43:03.988Z,14.38
2017-12-06T04:45:33.725Z,13.95
2017-12-06T04:48:03.764Z,13.20
2017-12-06T04:50:33.891Z,14.77
2017-12-06T04:53:03.630Z,13.82
2017-12-06T04:55:33.329Z,14.98
2017-12-06T04:58:03.041Z,17.55
2017-12-06T05:00:32.769Z,11.63
2017-12-06T05:03:02.328Z,13.25
2017-12-06T05:05:32.062Z,12.88
2017-12-06T05:08:01.777Z,13.43
2017-12-06T05:10:31.486Z,14.48
2017-12-06T05:13:01.220Z,12.18
2017-12-06T05:15:30.973Z,10.88
2017-12-06T05:18:00.432Z,14.05
2017-12-06T05:20:30.256Z,10.65
2017-12-06T05:22:59.972Z,15.15
2017-12-06T05:25:29.700Z,14.00
2017-12-06T05:27:59.400Z,15.13
2017-12-06T05:30:29.159Z,14.77
2017-12-06T05:32:58.881Z,12.13
2017-12-06T05:35:28.628Z,13.05
2017-12-06T05:37:58.352Z,12.40
2017-12-06T05:40:28.099Z,15.80
2017-12-06T05:42:57.924Z,13.60
2017-12-06T05:45:27.699Z,13.82
2017-12-06T05:47:57.412Z,16.90
2017-12-06T05:50:27.124Z,14.65
2017-12-06T05:52:56.828Z,14.05
2017-12-06T05:55:26.569Z,12.20
2017-12-06T05:57:56.284Z,13.93
2017-12-06T06:00:26.049Z,13.38
2017-12-06T06:02:55.586Z,13.98
2017-12-06T06:05:25.526Z,13.15
2017-12-06T06:07:55.294Z,13.10
2017-12-06T06:10:25.018Z,15.25
2017-12-06T06:12:58.733Z,12.43
2017-12-06T06:15:28.456Z,19.27
2017-12-06T06:17:58.193Z,13.85
2017-12-06T06:20:27.932Z,13.82
2017-12-06T06:22:57.663Z,17.50
2017-12-06T06:25:27.409Z,13.18
2017-12-06T06:27:57.145Z,12.68
2017-12-06T06:30:26.932Z,15.77
2017-12-06T06:32:56.752Z,11.60
2017-12-06T06:35:26.550Z,12.00
2017-12-06T06:37:56.264Z,14.45
2017-12-06T06:40:26.023Z,11.57
2017-12-06T06:42:57.455Z,12.73
2017-12-06T06:45:28.453Z,13.43
2017-12-06T06:48:00.585Z,15.63
2017-12-06T06:50:30.828Z,14.13
2017-12-06T06:53:04.831Z,17.48
2017-12-06T06:55:35.263Z,14.32
2017-12-06T06:58:09.512Z,12.90
2017-12-06T07:00:39.249Z,10.07
2017-12-06T07:03:08.958Z,12.93
2017-12-06T07:05:39.645Z,12.43
2017-12-06T07:08:12.174Z,16.55
2017-12-06T07:10:42.584Z,15.80
2017-12-06T07:13:12.971Z,15.05
2017-12-06T07:15:44.241Z,11.40
2017-12-06T07:18:25.082Z,12.93
2017-12-06T07:20:54.854Z,18.77
2017-12-06T07:23:25.558Z,12.70
2017-12-06T07:25:55.428Z,10.85
2017-12-06T07:28:25.250Z,12.55
2017-12-06T07:30:54.946Z,14.60
2017-12-06T07:33:25.628Z,12.65
2017-12-06T07:35:55.154Z,15.65
2017-12-06T07:38:24.972Z,13.25
2017-12-06T07:40:55.835Z,15.15
2017-12-06T07:43:27.637Z,11.73
2017-12-06T07:45:57.889Z,13.43
2017-12-06T07:48:28.176Z,12.35
2017-12-06T07:50:57.934Z,12.85
2017-12-06T07:53:27.771Z,16.15
2017-12-06T07:55:57.548Z,12.35
2017-12-06T07:58:33.243Z,11.98
2017-12-06T08:01:02.988Z,16.62
2017-12-06T08:03:32.820Z,12.85
2017-12-06T08:06:02.751Z,12.10
2017-12-06T08:08:32.552Z,14.02
2017-12-06T08:11:02.381Z,13.07
2017-12-06T08:13:33.915Z,16.55
2017-12-06T08:16:03.844Z,11.52
2017-12-06T08:18:33.608Z,14.60
2017-12-06T08:21:03.775Z,16.15
2017-12-06T08:23:33.611Z,12.40
2017-12-06T08:26:05.803Z,14.87
2017-12-06T08:28:35.874Z,12.75
2017-12-06T08:31:05.693Z,12.68
2017-12-06T08:33:35.711Z,13.45
2017-12-06T08:36:05.578Z,17.52
2017-12-06T08:38:35.171Z,14.43
2017-12-06T08:41:05.492Z,13.25
2017-12-06T08:43:35.107Z,14.27
2017-12-06T08:46:04.858Z,13.32
2017-12-06T08:48:34.618Z,10.73
2017-12-06T08:51:04.388Z,15.10
2017-12-06T08:53:34.217Z,12.90
2017-12-06T08:56:04.019Z,12.35
2017-12-06T08:58:33.783Z,11.30
2017-12-06T09:01:03.787Z,12.25
2017-12-06T09:03:33.214Z,15.98
2017-12-06T09:06:02.925Z,9.60
2017-12-06T09:08:32.380Z,10.90
2017-12-06T09:11:01.940Z,12.95
2017-12-06T09:13:31.348Z,11.25
2017-12-06T09:16:01.099Z,9.30
2017-12-06T09:18:30.846Z,10.02
2017-12-06T09:21:00.637Z,12.00
2017-12-06T09:23:30.647Z,15.80
2017-12-06T09:26:00.577Z,10.70
2017-12-06T09:28:30.234Z,8.82
2017-12-06T09:31:00.106Z,10.57
2017-12-06T09:33:29.900Z,10.23
2017-12-06T09:35:59.714Z,9.23
2017-12-06T09:38:29.487Z,11.18
2017-12-06T09:40:59.907Z,9.07
2017-12-06T09:43:29.823Z,11.70
2017-12-06T09:45:59.398Z,9.05
2017-12-06T09:48:29.433Z,8.82
2017-12-06T09:50:59.420Z,13.32
2017-12-06T09:53:33.563Z,12.80
2017-12-06T09:56:04.543Z,8.75
2017-12-06T09:58:34.391Z,10.48
2017-12-06T10:01:04.878Z,13.18
2017-12-06T10:03:35.023Z,11.40
2017-12-06T10:06:04.938Z,12.85
2017-12-06T10:08:34.824Z,12.30
2017-12-06T10:11:04.687Z,10.48
2017-12-06T10:13:34.541Z,11.90
2017-12-06T10:16:04.359Z,12.20
2017-12-06T10:18:34.098Z,12.23
2017-12-06T10:21:03.555Z,13.45
2017-12-06T10:23:34.137Z,11.68
2017-12-06T10:26:03.958Z,10.93
2017-12-06T10:28:35.259Z,10.27
2017-12-06T10:31:04.957Z,8.27
2017-12-06T10:33:34.732Z,11.30
2017-12-06T10:36:04.243Z,13.05
2017-12-06T10:38:33.652Z,12.10
2017-12-06T10:41:04.323Z,10.15
2017-12-06T10:43:35.071Z,7.95
2017-12-06T10:46:04.941Z,8.57
2017-12-06T10:48:34.667Z,12.65
2017-12-06T10:51:04.648Z,10.05
2017-12-06T10:53:35.325Z,11.48
2017-12-06T10:56:05.089Z,11.27
2017-12-06T10:58:34.859Z,11.40
2017-12-06T11:01:04.786Z,10.40
2017-12-06T11:03:34.682Z,9.48
2017-12-06T11:06:04.318Z,10.07
2017-12-06T11:08:33.912Z,11.20
2017-12-06T11:11:16.715Z,11.75
2017-12-06T11:13:46.782Z,11.35
2017-12-06T11:16:16.596Z,9.13
2017-12-06T11:18:46.388Z,9.75
2017-12-06T11:21:16.309Z,9.35
2017-12-06T11:23:46.050Z,20.40
2017-12-06T11:26:21.743Z,11.18
2017-12-06T11:28:52.085Z,11.43
2017-12-06T11:31:22.142Z,9.65
2017-12-06T11:33:52.414Z,11.25
2017-12-06T11:36:22.326Z,13.65
2017-12-06T11:38:52.415Z,11.18
2017-12-06T11:41:27.019Z,17.12
2017-12-06T11:44:03.570Z,13.88
2017-12-06T11:46:36.056Z,12.23
2017-12-06T11:49:11.505Z,11.90
2017-12-06T11:51:42.944Z,10.55
2017-12-06T11:54:12.656Z,20.40
2017-12-06T11:56:44.176Z,10.50
2017-12-06T11:59:16.757Z,11.65
2017-12-06T12:01:49.845Z,8.48
2017-12-06T12:04:22.151Z,12.37
2017-12-06T12:06:54.256Z,9.55
2017-12-06T12:09:27.062Z,9.68
2017-12-06T12:14:45.628Z,10.77
2017-12-06T12:17:17.662Z,11.38
2017-12-06T12:19:51.666Z,11.00
2017-12-06T12:22:24.118Z,12.15
2017-12-06T12:24:56.411Z,11.40
2017-12-06T12:27:28.471Z,10.88
2017-12-06T12:30:01.203Z,12.90
2017-12-06T12:32:34.184Z,8.85
2017-12-06T12:35:04.410Z,11.10
2017-12-06T12:37:34.057Z,7.75
2017-12-06T12:40:04.502Z,11.10
2017-12-06T12:42:34.982Z,10.55
2017-12-06T12:45:04.486Z,10.77
2017-12-06T12:47:33.998Z,12.77
2017-12-06T12:50:03.451Z,9.57
2017-12-06T12:52:32.876Z,11.07
2017-12-06T12:55:03.768Z,10.48
2017-12-06T13:00:06.989Z,11.70
2017-12-06T13:02:36.250Z,10.00
2017-12-06T13:05:10.450Z,10.23
2017-12-06T13:07:40.422Z,9.63
2017-12-06T13:10:10.189Z,8.13
2017-12-06T13:12:39.739Z,10.25
2017-12-06T13:15:12.606Z,11.12
2017-12-06T13:17:42.101Z,11.15
2017-12-06T13:20:11.871Z,7.57
2017-12-06T13:25:16.256Z,8.20
2017-12-06T13:27:46.008Z,12.32
2017-12-06T13:30:17.263Z,7.85
2017-12-06T13:32:46.941Z,10.38
2017-12-06T13:35:17.445Z,10.68
2017-12-06T13:40:21.307Z,11.40
2017-12-06T13:42:50.678Z,14.93
2017-12-06T13:45:20.024Z,8.93
2017-12-06T13:47:49.415Z,9.77
2017-12-06T13:50:18.770Z,10.52
2017-12-06T13:52:48.226Z,8.38
2017-12-06T13:55:17.874Z,10.07
2017-12-06T13:57:48.153Z,12.77
2017-12-06T14:00:19.047Z,11.48
2017-12-06T14:02:48.875Z,7.78
2017-12-06T14:05:18.551Z,10.77
2017-12-06T14:07:48.730Z,9.80
2017-12-06T14:10:18.284Z,9.20
2017-12-06T14:12:47.782Z,7.47
2017-12-06T14:15:17.313Z,11.75
2017-12-06T14:17:46.665Z,13.20
2017-12-06T14:20:16.443Z,6.47
2017-12-06T14:22:45.825Z,9.43
2017-12-06T14:25:15.262Z,9.25
2017-12-06T14:27:44.920Z,7.87
2017-12-06T14:30:14.198Z,8.38
2017-12-06T14:32:45.777Z,7.20
2017-12-06T14:35:18.806Z,9.13
2017-12-06T14:37:49.663Z,9.98
2017-12-06T14:40:18.899Z,10.05
2017-12-06T14:42:48.802Z,7.57
2017-12-06T14:45:18.203Z,6.75
2017-12-06T14:47:47.879Z,10.48
2017-12-06T14:50:17.390Z,7.93
2017-12-06T14:52:46.840Z,8.73
2017-12-06T14:55:16.281Z,10.30
2017-12-06T14:57:45.695Z,7.28
2017-12-06T15:00:15.274Z,10.60
2017-12-06T15:02:47.687Z,8.27
2017-12-06T15:05:17.025Z,7.25
2017-12-06T15:07:46.443Z,9.98
2017-12-06T15:10:15.911Z,9.90
2017-12-06T15:12:45.495Z,10.77
2017-12-06T15:15:15.280Z,7.62
2017-12-06T15:17:44.901Z,8.30
2017-12-06T15:20:15.535Z,7.70
2017-12-06T15:22:45.201Z,9.68
2017-12-06T15:25:14.579Z,8.05
2017-12-06T15:27:43.912Z,9.90
2017-12-06T15:30:14.869Z,7.30
2017-12-06T15:32:45.006Z,10.70
2017-12-06T15:35:15.350Z,7.72
2017-12-06T15:37:44.633Z,8.65
2017-12-06T15:40:15.020Z,8.60
2017-12-06T15:42:45.521Z,7.60
2017-12-06T15:45:14.768Z,9.23
2017-12-06T15:47:44.300Z,11.45
2017-12-06T15:50:13.891Z,7.78
2017-12-06T15:52:43.508Z,7.20
2017-12-06T15:55:12.950Z,8.73
2017-12-06T15:57:43.114Z,5.57
2017-12-06T16:00:12.434Z,11.05
2017-12-06T16:02:42.185Z,6.85
2017-12-06T16:05:11.598Z,12.02
2017-12-06T16:07:41.154Z,6.50
2017-12-06T16:10:11.393Z,9.60
2017-12-06T16:12:41.159Z,6.32
2017-12-06T16:15:10.583Z,7.62
2017-12-06T16:17:40.656Z,7.03
2017-12-06T16:20:10.163Z,8.32
2017-12-06T16:22:39.792Z,5.62
2017-12-06T16:25:09.855Z,8.18
2017-12-06T16:27:40.436Z,8.50
2017-12-06T16:30:10.899Z,8.57
2017-12-06T16:32:40.422Z,7.95
2017-12-06T16:35:21.215Z,7.65
2017-12-06T16:37:50.802Z,5.70
2017-12-06T16:40:20.870Z,8.70
2017-12-06T16:42:50.825Z,8.30
2017-12-06T16:45:21.417Z,8.38
2017-12-06T16:47:51.266Z,6.90
2017-12-06T16:50:20.593Z,10.30
2017-12-06T16:52:50.449Z,9.75
2017-12-06T16:55:21.980Z,8.65
2017-12-06T16:57:53.475Z,10.00
2017-12-06T17:02:56.686Z,9.77
2017-12-06T17:05:27.035Z,6.87
2017-12-06T17:07:57.589Z,6.60
2017-12-06T17:10:27.903Z,10.73
2017-12-06T17:13:06.232Z,9.15
2017-12-06T17:15:36.645Z,9.55
2017-12-06T17:18:06.288Z,8.90
2017-12-06T17:20:36.032Z,7.25
2017-12-06T17:23:06.234Z,11.70
2017-12-06T17:25:36.177Z,9.07
2017-12-06T17:28:05.421Z,9.02
2017-12-06T17:33:42.504Z,7.62
2017-12-06T17:36:12.048Z,10.80
2017-12-06T17:38:41.424Z,12.27
2017-12-06T17:41:10.889Z,8.45
2017-12-06T17:43:40.348Z,10.73
2017-12-06T17:46:09.850Z,10.68
2017-12-06T17:48:39.442Z,11.80
2017-12-06T17:51:10.280Z,10.93
2017-12-06T17:53:40.146Z,10.63
2017-12-06T17:56:09.709Z,12.27
2017-12-06T17:58:39.215Z,10.88
2017-12-06T18:01:08.930Z,10.82
2017-12-06T18:03:40.279Z,11.85
2017-12-06T18:06:09.851Z,11.48
2017-12-06T18:08:39.788Z,13.75
2017-12-06T18:11:09.638Z,12.32
2017-12-06T18:13:41.454Z,11.77
2017-12-06T18:16:11.186Z,10.93
2017-12-06T18:18:42.168Z,11.15
2017-12-06T18:21:13.260Z,12.65
2017-12-06T18:23:42.923Z,11.63
2017-12-06T18:26:13.840Z,14.75
2017-12-06T18:28:43.212Z,11.77
2017-12-06T18:31:13.615Z,10.45
2017-12-06T18:33:43.278Z,10.52
2017-12-06T18:36:12.821Z,11.57
2017-12-06T18:38:42.409Z,11.98
2017-12-06T18:41:12.160Z,11.85
2017-12-06T18:43:41.952Z,13.13
2017-12-06T18:46:13.712Z,14.65
2017-12-06T18:48:43.705Z,14.10
2017-12-06T18:51:13.674Z,11.07
2017-12-06T18:53:43.550Z,12.75
2017-12-06T18:56:14.249Z,12.75
2017-12-06T18:58:44.124Z,14.43
2017-12-06T19:01:14.022Z,16.55
2017-12-06T19:03:44.489Z,13.43
2017-12-06T19:06:16.462Z,14.87
2017-12-06T19:08:46.373Z,14.70
2017-12-06T19:11:17.008Z,16.37
2017-12-06T19:13:47.102Z,13.68
2017-12-06T19:16:17.231Z,13.10
2017-12-06T19:18:47.278Z,14.80
2017-12-06T19:21:17.024Z,13.75
2017-12-06T19:23:46.802Z,15.93
2017-12-06T19:26:16.656Z,13.50
2017-12-06T19:28:46.392Z,16.27
2017-12-06T19:31:16.670Z,15.30
2017-12-06T19:33:46.464Z,12.10
2017-12-06T19:36:16.274Z,11.95
2017-12-06T19:38:46.057Z,13.52
2017-12-06T19:41:15.972Z,9.05
2017-12-06T19:43:46.413Z,13.90
2017-12-06T19:46:16.276Z,13.10
2017-12-06T19:48:46.083Z,16.77
2017-12-06T19:51:15.994Z,15.27
2017-12-06T19:53:46.684Z,15.13
2017-12-06T19:56:16.481Z,13.75
2017-12-06T19:58:46.242Z,13.95
2017-12-06T20:01:16.309Z,20.00
2017-12-06T20:03:46.134Z,13.73
2017-12-06T20:06:15.924Z,17.42
2017-12-06T20:08:45.822Z,14.55
2017-12-06T20:11:15.798Z,15.40
2017-12-06T20:13:46.183Z,14.50
2017-12-06T20:16:15.782Z,12.98
2017-12-06T20:18:45.591Z,13.43
2017-12-06T20:21:15.481Z,12.50
2017-12-06T20:23:45.234Z,14.38
2017-12-06T20:26:14.998Z,15.13
2017-12-06T20:28:44.751Z,12.98
2017-12-06T20:31:15.428Z,15.27
2017-12-06T20:33:45.145Z,15.20
2017-12-06T20:36:14.869Z,14.07
2017-12-06T20:38:44.645Z,13.02
2017-12-06T20:41:14.813Z,15.73
2017-12-06T20:43:44.572Z,12.93
2017-12-06T20:46:14.158Z,13.85
2017-12-06T20:48:44.232Z,16.12
2017-12-06T20:51:14.379Z,12.65
2017-12-06T20:53:44.085Z,15.60
2017-12-06T20:56:14.080Z,15.55
2017-12-06T20:58:44.400Z,15.18
2017-12-06T21:01:14.245Z,16.52
2017-12-06T21:03:44.043Z,17.12
2017-12-06T21:06:14.684Z,14.87
2017-12-06T21:08:44.446Z,15.63
2017-12-06T21:11:14.162Z,16.92
2017-12-06T21:13:43.902Z,16.98
2017-12-06T21:16:13.443Z,16.62
2017-12-06T21:18:43.167Z,16.08
2017-12-06T21:21:12.546Z,12.88
2017-12-06T21:23:42.330Z,17.37
2017-12-06T21:26:11.937Z,16.77
2017-12-06T21:28:41.702Z,17.77
2017-12-06T21:31:11.576Z,10.73
2017-12-06T21:33:41.447Z,16.20
2017-12-06T21:36:11.312Z,16.20
2017-12-06T21:38:41.025Z,16.62
2017-12-06T21:41:10.746Z,17.23
2017-12-06T21:43:40.602Z,16.37
2017-12-06T21:46:10.152Z,15.75
2017-12-06T21:48:39.717Z,17.98
2017-12-06T21:51:09.473Z,20.25
2017-12-06T21:53:39.196Z,15.02
2017-12-06T21:56:09.136Z,17.52
2017-12-06T21:58:38.851Z,19.75
2017-12-06T22:01:08.602Z,20.95
2017-12-06T22:03:38.306Z,18.15
2017-12-06T22:06:08.021Z,21.98
2017-12-06T22:08:37.700Z,16.58
2017-12-06T22:11:07.511Z,18.20
2017-12-06T22:13:37.489Z,19.08
2017-12-06T22:16:07.366Z,19.27
2017-12-06T22:18:37.088Z,18.42
2017-12-06T22:21:06.872Z,22.23
2017-12-06T22:23:36.867Z,16.92
2017-12-06T22:26:06.596Z,18.33
2017-12-06T22:28:36.312Z,24.42
2017-12-06T22:31:06.061Z,19.73
2017-12-06T22:33:36.061Z,19.55
2017-12-06T22:36:05.781Z,22.45
2017-12-06T22:38:35.512Z,17.90
2017-12-06T22:41:05.247Z,23.42
2017-12-06T22:43:35.050Z,18.02
2017-12-06T22:46:04.786Z,19.15
2017-12-06T22:48:34.520Z,19.67
2017-12-06T22:51:04.278Z,18.73
2017-12-06T22:53:33.829Z,19.45
2017-12-06T22:56:03.409Z,22.02
2017-12-06T22:58:33.147Z,20.27
2017-12-06T23:01:04.032Z,18.55
2017-12-06T23:03:33.984Z,22.80
2017-12-06T23:06:03.513Z,20.52
2017-12-06T23:08:33.680Z,22.37
2017-12-06T23:11:03.453Z,21.65
2017-12-06T23:13:37.574Z,21.02
2017-12-06T23:16:07.287Z,19.92
2017-12-06T23:18:37.012Z,21.60
2017-12-06T23:21:06.753Z,21.80
2017-12-06T23:23:36.628Z,18.50
2017-12-06T23:26:06.360Z,19.02
2017-12-06T23:28:36.078Z,20.70
2017-12-06T23:31:05.793Z,23.23
2017-12-06T23:33:35.576Z,19.25
2017-12-06T23:36:05.901Z,21.17
2017-12-06T23:38:35.624Z,22.15
2017-12-06T23:41:05.013Z,22.98
2017-12-06T23:43:34.408Z,22.35
2017-12-06T23:46:04.129Z,26.65
2017-12-06T23:48:33.917Z,21.27
2017-12-06T23:51:03.645Z,27.13
2017-12-06T23:53:33.198Z,20.48
2017-12-06T23:56:02.918Z,18.45
2017-12-06T23:58:32.646Z,18.55
